Aeroporto :
LOGIN :

Iscrizione | Disclaimer

   EN    FR    IT 

 










Sommario :    VFR   VFR Marginale   IFR   IFR Intensivo   IFR Molto Intensivo
Visibilità : 
Base nubi : 
>= 8 km
>= 3000ft
5 / 8 km
1000 / 3000 ft
1500m / 5 km
500 / 1000 ft
800 / 1500m
200 / 500 ft
< 800m
< 200 ft
Simboli :   Temporali  Nebbia  Neve Forte  Precipitazioni Forti  Vento > 20 kt
SIGMETs :   Varie  Temporali  Ghiacco  Turbolenza  Onda orograficha  Ceneri Vulcaniche






- Altitudine del aeroporto : 162 ft
- Codice IATA : BOD


LFBD - Bordeaux / Merignac

ULTIMO METAR :
  • 162030Z AUTO 20004KT CAVOK 18/15 Q1013 TEMPO 4000 -SHRA BKN010 SCT030CB

METARs OBSOLETI :
  • 162000Z AUTO 23006KT CAVOK 18/14 Q1013 TEMPO 4000 -SHRA BKN030TCU
  • 161930Z AUTO 22005KT 9999 FEW021 SCT070 BKN170 19/15 Q1013 TEMPO 4000 -SHRA BKN030TCU
  • 161900Z AUTO 23006KT 210V270 CAVOK 19/14 Q1013 TEMPO 4000 -SHRA BKN030TCU
  • 161830Z AUTO 26007KT 9999 SCT025 OVC068 20/14 Q1013 TEMPO 4000 -SHRA BKN030TCU
  • 161800Z AUTO 26010KT 9999 BKN027 BKN068 20/14 Q1013 NOSIG
  • 161730Z AUTO 26011KT 9999 BKN028 BKN170 BKN210 21/14 Q1012 NOSIG
  • 161700Z AUTO 28011KT 250V310 9999 BKN029 BKN170 21/14 Q1012 NOSIG
  • 161630Z AUTO 27012KT 250V310 9999 BKN030 BKN094 BKN180 22/14 Q1012 NOSIG
  • 161600Z AUTO 28012KT 240V300 9999 BKN032 22/14 Q1012 NOSIG

TAF TAF LFBD
Valido dal 16 a 18 ore il 18 a 00 ore UTC


161700Z 1618/1724 26008KT 9999 BKN030 TX26/1713Z TN16/1704Z
TEMPO 1620/1706 4000 -SHRA BKN030TCU
PROB30
TEMPO 1622/1706 -TSRA BKN010 SCT030CB
TEMPO 1718/1724 VRB15G25KT BKN040CB
ATIS : +33 5 57 92 81 04



MetMap, La meteo Aeronautica in un colpo d'occhio ! - Copyright ORBIFLY Dicembre 2007 - Disclaimer

ORBIFLY MET'MAP TEAM :

Programmazione e sviluppo : Alexandra Zaïnal
Concezione : Baudouin d'Aumeries
Supporto tecnico e logistico : Manuel Goepfert
Aiuto : Marc-Olivier Méhu
Aiuto per la traduzione : Arnaldo La Scala




FONTI E CREDITI :

   NOAA